Time;durP1;ratioP1;P1;durP2;ratioP2;P2;SDS_P1;SDS_P2;PMS_P1;PMS_P2;Temp;Humidity;BMP_temperature;BMP_pressure;BME280_temperature;BME280_humidity;BME280_pressure;Samples;Min_cycle;Max_cycle;Signal;HPM_P1;HPM_P2
2020/12/28 00:00:45;;;;;;;0.40;0.40;;;;;;;4.90;100.00;96511.28;5064474;28;20200;-32
2020/12/28 00:03:31;;;;;;;0.60;0.60;;;;;;;4.91;100.00;96515.50;5058721;28;20201;-33
2020/12/28 00:06:20;;;;;;;0.73;0.73;;;;;;;5.02;100.00;96507.31;5062179;28;20194;-32
2020/12/28 00:09:07;;;;;;;1.07;0.50;;;;;;;4.84;100.00;96514.13;5058746;28;20235;-30
2020/12/28 00:11:54;;;;;;;1.00;1.00;;;;;;;5.11;100.00;96507.72;5058720;28;20197;-32
2020/12/28 00:14:41;;;;;;;0.70;0.70;;;;;;;5.08;100.00;96514.72;5059953;28;20210;-32
2020/12/28 00:17:28;;;;;;;0.70;0.70;;;;;;;4.86;100.00;96502.09;5058616;28;20665;-32
2020/12/28 00:20:15;;;;;;;0.50;0.50;;;;;;;4.94;100.00;96507.69;5057954;28;20741;-33
2020/12/28 00:23:01;;;;;;;0.77;0.77;;;;;;;4.96;100.00;96502.50;5057800;28;20317;-32
2020/12/28 00:25:47;;;;;;;0.50;0.50;;;;;;;4.91;100.00;96504.44;5058870;28;20298;-32
2020/12/28 00:28:34;;;;;;;1.03;0.80;;;;;;;5.08;100.00;96512.16;5060906;28;20289;-32
2020/12/28 00:31:21;;;;;;;0.87;0.87;;;;;;;4.88;100.00;96517.38;5061102;28;20202;-32
2020/12/28 00:34:08;;;;;;;0.50;0.50;;;;;;;4.97;100.00;96515.22;5062118;28;20196;-32
2020/12/28 00:36:54;;;;;;;0.53;0.53;;;;;;;5.04;100.00;96526.00;5060959;28;20287;-31
2020/12/28 00:39:40;;;;;;;0.87;0.60;;;;;;;5.13;100.00;96525.56;5063930;28;20191;-32
2020/12/28 00:42:29;;;;;;;0.60;0.60;;;;;;;5.23;100.00;96497.75;5063239;28;20280;-32
2020/12/28 00:45:15;;;;;;;0.63;0.63;;;;;;;5.41;100.00;96499.41;5063509;28;20369;-32
2020/12/28 00:48:04;;;;;;;0.40;0.40;;;;;;;5.11;100.00;96492.34;5064507;28;20266;-31
2020/12/28 00:50:51;;;;;;;0.50;0.50;;;;;;;4.98;100.00;96498.97;5062384;28;20231;-32
2020/12/28 00:53:37;;;;;;;0.50;0.50;;;;;;;5.08;100.00;96497.59;5060992;28;20237;-32
2020/12/28 00:56:23;;;;;;;0.80;0.80;;;;;;;5.13;100.00;96515.31;5062292;28;20628;-32
2020/12/28 00:59:12;;;;;;;0.60;0.60;;;;;;;4.98;100.00;96518.63;5064492;28;20199;-32
2020/12/28 01:01:59;;;;;;;0.60;0.60;;;;;;;5.19;100.00;96508.19;5061084;28;20345;-32
2020/12/28 01:04:45;;;;;;;0.90;0.90;;;;;;;5.32;100.00;96510.13;5060801;28;20259;-32
2020/12/28 01:07:34;;;;;;;0.57;0.57;;;;;;;5.35;100.00;96504.88;5060472;28;20482;-32
2020/12/28 01:10:20;;;;;;;0.60;0.60;;;;;;;5.21;100.00;96500.41;5060159;28;20322;-32
2020/12/28 01:13:07;;;;;;;0.70;0.70;;;;;;;5.14;100.00;96515.25;5060580;28;20485;-32
2020/12/28 01:15:54;;;;;;;0.73;0.73;;;;;;;5.27;100.00;96517.22;5060718;28;20508;-32
2020/12/28 01:18:41;;;;;;;0.60;0.60;;;;;;;5.08;100.00;96509.59;5063559;28;20290;-32
2020/12/28 01:21:28;;;;;;;0.50;0.50;;;;;;;5.20;100.00;96507.25;5065016;28;20292;-32
2020/12/28 01:24:15;;;;;;;0.60;0.60;;;;;;;5.24;100.00;96494.28;5066310;28;20337;-32
2020/12/28 01:27:02;;;;;;;0.70;0.70;;;;;;;5.46;100.00;96510.28;5062208;28;20223;-32
2020/12/28 01:29:49;;;;;;;0.60;0.60;;;;;;;5.39;100.00;96504.66;5062844;28;20686;-32
2020/12/28 01:32:36;;;;;;;0.73;0.73;;;;;;;5.25;100.00;96501.91;5061957;28;20215;-32
2020/12/28 01:35:22;;;;;;;2.20;0.73;;;;;;;5.37;100.00;96495.38;5064032;28;20216;-32
2020/12/28 01:38:08;;;;;;;0.50;0.50;;;;;;;5.24;100.00;96495.13;5064076;28;20200;-32
2020/12/28 01:40:56;;;;;;;0.70;0.70;;;;;;;5.34;100.00;96498.91;5063540;28;20686;-32
2020/12/28 01:43:42;;;;;;;0.60;0.60;;;;;;;5.29;100.00;96493.19;5061074;28;20205;-32
2020/12/28 01:46:31;;;;;;;0.70;0.70;;;;;;;5.33;100.00;96494.69;5060698;28;20204;-32
2020/12/28 01:49:18;;;;;;;0.77;0.77;;;;;;;5.28;100.00;96491.53;5060285;28;20208;-32
2020/12/28 01:52:05;;;;;;;0.63;0.63;;;;;;;5.18;100.00;96488.59;5060779;28;20226;-32
2020/12/28 01:54:55;;;;;;;0.63;0.63;;;;;;;5.31;100.00;96499.06;5061280;28;20553;-31
2020/12/28 01:57:43;;;;;;;1.43;0.70;;;;;;;5.30;100.00;96494.00;5063082;28;20240;-32
2020/12/28 02:00:33;;;;;;;0.70;0.70;;;;;;;5.25;100.00;96499.34;5066569;28;20252;-31
2020/12/28 02:03:19;;;;;;;0.77;0.77;;;;;;;5.22;100.00;96496.09;5068440;28;20284;-31
2020/12/28 02:06:05;;;;;;;0.50;0.50;;;;;;;5.04;100.00;96497.81;5061851;28;20223;-31
2020/12/28 02:08:51;;;;;;;0.70;0.70;;;;;;;5.22;100.00;96496.94;5061677;28;20287;-31
2020/12/28 02:11:37;;;;;;;0.70;0.70;;;;;;;5.18;100.00;96505.69;5063873;28;20659;-31
2020/12/28 02:14:26;;;;;;;0.70;0.70;;;;;;;5.06;100.00;96506.25;5063982;28;20201;-31
2020/12/28 02:17:12;;;;;;;0.67;0.67;;;;;;;5.11;100.00;96515.41;5059758;28;20199;-31
2020/12/28 02:19:59;;;;;;;0.60;0.60;;;;;;;5.00;100.00;96520.19;5059932;28;20202;-31
2020/12/28 02:22:46;;;;;;;0.70;0.60;;;;;;;5.09;100.00;96517.19;5059662;28;20244;-31
2020/12/28 02:25:33;;;;;;;0.57;0.57;;;;;;;5.16;100.00;96510.88;5061678;28;20287;-32
2020/12/28 02:28:19;;;;;;;0.60;0.60;;;;;;;5.04;100.00;96516.59;5064554;28;20200;-31
2020/12/28 02:31:05;;;;;;;0.70;0.70;;;;;;;5.12;100.00;96503.41;5060968;28;20228;-31
2020/12/28 02:33:53;;;;;;;0.50;0.50;;;;;;;5.01;100.00;96498.78;5060621;28;20222;-31
2020/12/28 02:36:39;;;;;;;0.80;0.80;;;;;;;4.93;100.00;96503.47;5060294;28;20266;-31
2020/12/28 02:39:26;;;;;;;0.73;0.73;;;;;;;4.92;100.00;96504.38;5060201;28;20208;-31
2020/12/28 02:42:12;;;;;;;0.77;0.70;;;;;;;5.16;100.00;96497.25;5060495;28;20326;-31
2020/12/28 02:44:59;;;;;;;0.70;0.70;;;;;;;5.18;100.00;96501.41;5059713;28;20220;-31
2020/12/28 02:47:45;;;;;;;0.53;0.53;;;;;;;4.99;100.00;96489.56;5060725;28;20287;-32
2020/12/28 02:50:32;;;;;;;0.60;0.60;;;;;;;5.19;100.00;96491.97;5061206;28;20223;-32
2020/12/28 02:53:20;;;;;;;0.50;0.50;;;;;;;4.95;100.00;96500.84;5063017;28;20199;-31
2020/12/28 02:56:08;;;;;;;1.00;0.60;;;;;;;5.00;100.00;96488.63;5060254;28;20276;-31
2020/12/28 02:58:56;;;;;;;0.90;0.63;;;;;;;4.96;100.00;96487.97;5059155;28;20224;-31
2020/12/28 03:01:42;;;;;;;1.70;0.53;;;;;;;4.91;100.00;96479.66;5059197;28;20754;-31
2020/12/28 03:04:29;;;;;;;0.70;0.40;;;;;;;4.88;100.00;96477.25;5058823;28;20184;-31
2020/12/28 03:07:15;;;;;;;0.63;0.63;;;;;;;4.96;100.00;96474.34;5059295;28;20200;-31
2020/12/28 03:10:37;;;;;;;0.50;0.50;;;;;;;5.16;100.00;96475.03;5059390;28;20629;-31
2020/12/28 03:13:23;;;;;;;0.60;0.60;;;;;;;5.26;100.00;96482.25;5059337;28;20506;-31
2020/12/28 03:16:10;;;;;;;0.60;0.60;;;;;;;5.06;100.00;96481.47;5058579;28;20196;-32
2020/12/28 03:18:56;;;;;;;0.60;0.60;;;;;;;5.09;100.00;96480.50;5059073;28;20199;-31
2020/12/28 03:21:42;;;;;;;0.53;0.50;;;;;;;5.13;100.00;96476.91;5058440;28;20205;-31
2020/12/28 03:24:29;;;;;;;0.50;0.50;;;;;;;5.09;100.00;96480.50;5058712;28;20236;-31
2020/12/28 03:27:17;;;;;;;0.50;0.50;;;;;;;5.01;100.00;96486.00;5058600;28;20343;-31
2020/12/28 03:30:05;;;;;;;0.53;0.53;;;;;;;5.16;100.00;96487.00;5058400;28;20515;-32
2020/12/28 03:32:51;;;;;;;0.60;0.60;;;;;;;5.28;100.00;96490.69;5059472;28;20264;-32
2020/12/28 03:35:40;;;;;;;1.73;1.10;;;;;;;5.08;100.00;96495.03;5060058;28;20474;-32
2020/12/28 03:38:26;;;;;;;0.50;0.50;;;;;;;5.24;100.00;96492.56;5059139;28;20254;-31
2020/12/28 03:41:13;;;;;;;0.50;0.50;;;;;;;5.29;100.00;96494.91;5058776;28;20196;-32
2020/12/28 03:43:59;;;;;;;0.60;0.60;;;;;;;5.28;100.00;96490.69;5057793;28;20295;-31
2020/12/28 03:46:46;;;;;;;0.57;0.57;;;;;;;5.34;100.00;96495.53;5058454;28;20207;-31
2020/12/28 03:49:32;;;;;;;0.60;0.60;;;;;;;5.13;100.00;96494.84;5059584;28;20271;-31
2020/12/28 03:52:22;;;;;;;0.60;0.60;;;;;;;5.31;100.00;96498.22;5058490;28;20259;-32
2020/12/28 03:55:08;;;;;;;0.40;0.40;;;;;;;5.28;100.00;96486.41;5058895;28;20323;-31
2020/12/28 03:57:54;;;;;;;0.60;0.60;;;;;;;5.08;100.00;96487.38;5059210;28;20192;-31
2020/12/28 04:00:41;;;;;;;1.00;0.50;;;;;;;5.22;100.00;96494.38;5058566;28;20613;-31
2020/12/28 04:03:28;;;;;;;0.50;0.50;;;;;;;5.21;100.00;96492.72;5063246;28;20498;-32
2020/12/28 04:06:14;;;;;;;0.50;0.50;;;;;;;5.16;100.00;96487.00;5063111;28;20199;-31
2020/12/28 04:09:01;;;;;;;0.40;0.40;;;;;;;5.02;100.00;96492.78;5063620;28;20199;-31
2020/12/28 04:11:47;;;;;;;0.70;0.70;;;;;;;5.33;100.00;96496.44;5064423;28;20229;-32
2020/12/28 04:14:35;;;;;;;0.70;0.70;;;;;;;5.48;100.00;96503.34;5063232;28;20207;-32
2020/12/28 04:17:22;;;;;;;0.70;0.70;;;;;;;5.41;100.00;96500.25;5070067;28;20195;-31
2020/12/28 04:20:09;;;;;;;0.70;0.70;;;;;;;5.31;100.00;96496.50;5065341;28;20285;-31
2020/12/28 04:22:55;;;;;;;0.60;0.60;;;;;;;5.20;100.00;96494.44;5062183;28;20192;-31
2020/12/28 04:25:41;;;;;;;0.40;0.40;;;;;;;5.19;100.00;96491.97;5061653;28;20243;-31
2020/12/28 04:28:28;;;;;;;0.70;0.70;;;;;;;5.48;100.00;96498.22;5062078;28;20200;-32
2020/12/28 04:31:14;;;;;;;1.23;1.20;;;;;;;5.29;100.00;96498.31;5061498;28;20228;-31
2020/12/28 04:34:01;;;;;;;0.70;0.70;;;;;;;5.36;100.00;96503.97;5068933;28;20199;-32
2020/12/28 04:36:48;;;;;;;1.60;0.60;;;;;;;5.26;100.00;96503.56;5070311;28;20225;-32
2020/12/28 04:39:35;;;;;;;1.00;0.80;;;;;;;5.30;100.00;96504.25;5067415;28;20209;-32
2020/12/28 04:42:26;;;;;;;1.30;1.20;;;;;;;5.38;100.00;96512.41;5066106;28;20251;-31
2020/12/28 04:45:13;;;;;;;2.80;1.53;;;;;;;5.18;100.00;96510.81;5065379;28;20255;-32
2020/12/28 04:48:00;;;;;;;2.33;1.87;;;;;;;5.19;100.00;96518.44;5066185;28;20286;-32
2020/12/28 04:50:47;;;;;;;3.93;2.90;;;;;;;5.32;100.00;96525.50;5068906;28;20707;-31
2020/12/28 04:53:35;;;;;;;3.73;3.07;;;;;;;5.34;100.00;96526.28;5066307;28;20200;-33
2020/12/28 04:56:22;;;;;;;1.17;1.17;;;;;;;5.33;100.00;96517.75;5068004;28;20203;-31
2020/12/28 04:59:09;;;;;;;1.57;0.90;;;;;;;5.43;100.00;96515.56;5066495;28;20200;-32
2020/12/28 05:01:55;;;;;;;0.80;0.80;;;;;;;5.44;100.00;96506.97;5066032;28;20200;-31
2020/12/28 05:04:41;;;;;;;0.80;0.80;;;;;;;5.26;100.00;96493.31;5062289;28;20208;-31
2020/12/28 05:07:32;;;;;;;0.70;0.70;;;;;;;5.45;100.00;96498.38;5061295;28;20196;-31
2020/12/28 05:10:27;;;;;;;0.70;0.70;;;;;;;5.39;100.00;96498.69;5060688;28;20240;-31
2020/12/28 05:13:17;;;;;;;0.90;0.90;;;;;;;5.65;100.00;96502.50;5060864;28;20298;-31
2020/12/28 05:16:03;;;;;;;0.90;0.90;;;;;;;5.43;100.00;96513.00;5061803;28;20661;-31
2020/12/28 05:18:52;;;;;;;0.90;0.90;;;;;;;5.30;100.00;96514.50;5061776;28;20205;-31
2020/12/28 05:21:38;;;;;;;0.80;0.80;;;;;;;4.93;100.00;96510.31;5061194;28;20362;-31
2020/12/28 05:24:25;;;;;;;1.20;1.00;;;;;;;5.41;100.00;96523.31;5062213;28;20231;-31
2020/12/28 05:27:16;;;;;;;0.90;0.90;;;;;;;5.26;100.00;96511.25;5061951;28;20212;-31
2020/12/28 05:30:03;;;;;;;0.80;0.80;;;;;;;5.19;100.00;96510.75;5060434;28;20220;-31
2020/12/28 05:32:49;;;;;;;2.00;1.17;;;;;;;5.13;100.00;96513.59;5060713;28;20204;-31
2020/12/28 05:35:35;;;;;;;1.93;1.03;;;;;;;5.59;100.00;96507.97;5060461;28;20669;-31
2020/12/28 05:38:22;;;;;;;0.80;0.80;;;;;;;5.27;100.00;96504.41;5060274;28;20199;-31
2020/12/28 05:41:08;;;;;;;1.00;1.00;;;;;;;5.17;100.00;96521.97;5060361;28;20195;-32
2020/12/28 05:44:11;;;;;;;0.90;0.90;;;;;;;5.13;100.00;96526.41;5059966;28;20220;-32
2020/12/28 05:47:03;;;;;;;0.80;0.80;;;;;;;5.30;100.00;96519.63;5060017;28;20543;-31
2020/12/28 05:49:49;;;;;;;0.73;0.73;;;;;;;5.09;100.00;96521.50;5059395;28;20207;-31
2020/12/28 05:52:38;;;;;;;1.33;1.10;;;;;;;5.22;100.00;96514.03;5059985;28;20207;-31
2020/12/28 05:55:25;;;;;;;0.87;0.87;;;;;;;5.50;100.00;96514.34;5060909;28;20196;-31
2020/12/28 05:58:12;;;;;;;0.70;0.70;;;;;;;5.32;100.00;96525.50;5059807;28;20351;-31
2020/12/28 06:01:09;;;;;;;1.00;1.00;;;;;;;5.31;100.00;96524.69;5059786;28;20581;-31
2020/12/28 06:04:01;;;;;;;0.90;0.90;;;;;;;5.29;100.00;96523.94;5060789;28;20203;-32
2020/12/28 06:06:48;;;;;;;0.97;0.73;;;;;;;5.01;100.00;96523.56;5061167;28;20204;-31
2020/12/28 06:09:36;;;;;;;1.10;1.10;;;;;;;5.20;100.00;96526.91;5060077;28;20202;-31
2020/12/28 06:12:22;;;;;;;1.40;1.30;;;;;;;5.31;100.00;96518.72;5059475;28;20728;-31
2020/12/28 06:15:26;;;;;;;0.97;0.97;;;;;;;5.28;100.00;96521.44;5059129;28;20585;-31
2020/12/28 06:18:18;;;;;;;0.93;0.93;;;;;;;5.29;100.00;96541.03;5070810;28;20196;-31
2020/12/28 06:21:12;;;;;;;2.50;0.90;;;;;;;5.25;100.00;96553.16;5060289;28;20268;-31
2020/12/28 06:23:59;;;;;;;0.83;0.80;;;;;;;5.48;100.00;96552.03;5058637;28;20269;-31
2020/12/28 06:26:45;;;;;;;0.97;0.97;;;;;;;5.38;100.00;96555.97;5060129;28;20601;-32
2020/12/28 06:29:32;;;;;;;0.70;0.70;;;;;;;5.65;100.00;96556.34;5062800;28;20203;-31
2020/12/28 06:32:18;;;;;;;0.80;0.80;;;;;;;5.53;100.00;96561.19;5060327;28;20259;-32
2020/12/28 06:35:08;;;;;;;0.90;0.90;;;;;;;5.62;100.00;96553.94;5061072;28;20260;-31
2020/12/28 06:37:54;;;;;;;1.00;1.00;;;;;;;5.85;100.00;96567.28;5060263;28;20485;-32
2020/12/28 06:40:41;;;;;;;1.00;1.00;;;;;;;5.44;100.00;96569.31;5060543;28;20204;-31
2020/12/28 06:43:38;;;;;;;1.10;1.10;;;;;;;5.85;100.00;96569.84;5059988;28;20200;-31
2020/12/28 06:46:24;;;;;;;1.00;1.00;;;;;;;5.57;100.00;96573.84;5059824;28;20602;-31
2020/12/28 06:49:11;;;;;;;1.10;1.00;;;;;;;5.49;100.00;96576.78;5061693;28;20192;-31
2020/12/28 06:52:03;;;;;;;0.90;0.90;;;;;;;5.45;100.00;96578.66;5061356;28;20326;-31
2020/12/28 06:54:50;;;;;;;1.23;1.23;;;;;;;5.66;100.00;96573.38;5064508;28;20220;-31
2020/12/28 06:57:39;;;;;;;1.10;1.10;;;;;;;5.52;100.00;96579.19;5061790;28;20296;-31
2020/12/28 07:00:25;;;;;;;1.50;1.40;;;;;;;5.48;100.00;96585.38;5060274;28;20219;-31
2020/12/28 07:03:13;;;;;;;2.00;1.90;;;;;;;5.40;100.00;96582.31;5060751;28;20259;-32
2020/12/28 07:06:00;;;;;;;1.67;1.57;;;;;;;5.70;100.00;96578.28;5060477;28;20195;-31
2020/12/28 07:08:48;;;;;;;1.40;1.23;;;;;;;5.68;100.00;96582.66;5061506;28;20436;-31
2020/12/28 07:11:34;;;;;;;1.50;1.40;;;;;;;5.70;100.00;96585.97;5058777;28;20328;-31
2020/12/28 07:14:21;;;;;;;1.43;1.13;;;;;;;5.73;100.00;96585.84;5061065;28;20200;-32
2020/12/28 07:17:07;;;;;;;1.40;1.40;;;;;;;5.75;100.00;96596.84;5060158;28;20275;-32
2020/12/28 07:20:01;;;;;;;1.73;1.37;;;;;;;5.41;100.00;96602.75;5060155;28;20207;-32
2020/12/28 07:22:47;;;;;;;1.33;1.33;;;;;;;5.06;100.00;96603.59;5062119;28;20625;-31
2020/12/28 07:25:34;;;;;;;1.40;1.40;;;;;;;5.63;100.00;96607.69;5060488;28;20542;-32
2020/12/28 07:28:21;;;;;;;1.30;1.30;;;;;;;5.77;100.00;96607.88;5060850;28;20530;-31
2020/12/28 07:31:08;;;;;;;1.37;1.37;;;;;;;5.49;100.00;96612.66;5060826;28;20306;-31
2020/12/28 07:33:54;;;;;;;1.60;1.50;;;;;;;5.03;100.00;96625.03;5061721;28;20192;-32
2020/12/28 07:36:44;;;;;;;1.47;1.40;;;;;;;5.07;100.00;96629.13;5063395;28;20646;-31
2020/12/28 07:39:31;;;;;;;1.53;1.53;;;;;;;4.98;100.00;96637.25;5058345;28;20294;-31
2020/12/28 07:42:20;;;;;;;1.80;1.70;;;;;;;5.31;100.00;96641.72;5059067;28;20196;-31
2020/12/28 07:45:08;;;;;;;2.00;1.90;;;;;;;5.12;100.00;96650.25;5062057;28;20204;-31
2020/12/28 07:48:00;;;;;;;2.27;2.17;;;;;;;5.07;100.00;96648.78;5059520;28;20500;-31
2020/12/28 07:50:52;;;;;;;2.57;2.37;;;;;;;5.12;100.00;96645.13;5059122;28;20230;-31
2020/12/28 07:53:42;;;;;;;3.10;2.80;;;;;;;5.12;100.00;96639.19;5060539;28;20200;-31
2020/12/28 07:56:37;;;;;;;2.73;2.60;;;;;;;5.21;100.00;96633.63;5061613;28;20257;-31
2020/12/28 07:59:57;;;;;;;2.57;2.37;;;;;;;5.35;100.00;96631.25;5062994;28;20477;-31
2020/12/28 08:03:15;;;;;;;3.20;2.97;;;;;;;5.36;100.00;96632.09;5062216;28;20223;-31
2020/12/28 08:06:06;;;;;;;3.17;2.90;;;;;;;5.67;100.00;96631.44;5035478;28;20211;-31
2020/12/28 08:09:00;;;;;;;3.00;2.80;;;;;;;5.72;100.00;96630.34;5060853;28;20204;-31
2020/12/28 08:11:49;;;;;;;3.10;2.80;;;;;;;5.85;100.00;96644.22;5061237;28;20247;-31
2020/12/28 08:14:35;;;;;;;3.83;3.53;;;;;;;5.82;100.00;96651.22;5059479;28;20267;-31
2020/12/28 08:17:25;;;;;;;3.60;3.30;;;;;;;6.16;100.00;96645.31;5058980;28;20209;-31
2020/12/28 08:20:13;;;;;;;3.27;2.93;;;;;;;6.00;100.00;96646.94;5059091;28;20671;-32
2020/12/28 08:22:59;;;;;;;3.60;3.30;;;;;;;5.88;100.00;96651.78;5058867;28;20200;-31
2020/12/28 08:25:45;;;;;;;3.97;3.00;;;;;;;6.36;100.00;96647.69;5058225;28;20514;-31
2020/12/28 08:28:33;;;;;;;3.87;3.40;;;;;;;6.38;100.00;96650.19;5058682;28;20197;-32
2020/12/28 08:31:26;;;;;;;3.70;3.40;;;;;;;6.19;100.00;96658.78;5058863;28;20219;-32
2020/12/28 08:34:16;;;;;;;3.53;3.33;;;;;;;6.23;100.00;96660.31;5058148;28;20632;-31
2020/12/28 08:37:03;;;;;;;3.93;3.60;;;;;;;5.95;100.00;96661.75;5058862;28;20201;-32
2020/12/28 08:39:49;;;;;;;2.90;2.70;;;;;;;5.80;100.00;96671.81;5060025;28;20483;-31
2020/12/28 08:42:35;;;;;;;2.30;2.20;;;;;;;5.45;100.00;96673.47;5058334;28;20277;-31
2020/12/28 08:45:27;;;;;;;4.30;2.57;;;;;;;5.52;100.00;96681.72;5060476;28;20192;-31
2020/12/28 08:48:22;;;;;;;2.57;2.47;;;;;;;5.40;100.00;96677.16;5061645;28;20203;-32
2020/12/28 08:51:18;;;;;;;8.23;3.17;;;;;;;5.63;100.00;96676.06;5062572;28;20688;-31
2020/12/28 08:54:04;;;;;;;2.63;2.43;;;;;;;5.54;100.00;96683.31;5062280;28;20200;-31
2020/12/28 08:56:50;;;;;;;3.03;2.77;;;;;;;5.45;100.00;96678.59;5062080;28;20196;-31
2020/12/28 08:59:36;;;;;;;4.47;2.73;;;;;;;5.38;100.00;96684.94;5062535;28;20251;-31
2020/12/28 09:02:24;;;;;;;3.20;2.90;;;;;;;5.48;100.00;96698.13;5062765;28;20502;-31
2020/12/28 09:05:12;;;;;;;3.77;3.23;;;;;;;5.72;100.00;96702.13;5063161;28;20617;-32
2020/12/28 09:08:01;;;;;;;3.20;2.90;;;;;;;5.51;100.00;96698.00;5063441;28;20268;-31
2020/12/28 09:10:47;;;;;;;4.60;2.97;;;;;;;5.63;100.00;96696.59;5061163;28;20642;-31
2020/12/28 09:13:33;;;;;;;2.57;2.37;;;;;;;5.62;100.00;96692.34;5042745;28;20475;-32
2020/12/28 09:16:19;;;;;;;2.03;1.93;;;;;;;5.53;100.00;96701.31;5044495;28;20205;-32
2020/12/28 09:19:06;;;;;;;2.33;2.20;;;;;;;5.47;100.00;96699.03;5041850;28;20193;-31
2020/12/28 09:21:52;;;;;;;1.57;1.50;;;;;;;5.54;100.00;96703.81;5041416;28;20201;-32
2020/12/28 09:24:39;;;;;;;1.70;1.60;;;;;;;5.66;100.00;96707.53;5044495;28;20240;-31
2020/12/28 09:27:25;;;;;;;1.97;1.87;;;;;;;5.86;100.00;96706.59;5041739;28;20212;-31
2020/12/28 09:30:12;;;;;;;1.90;1.80;;;;;;;5.68;100.00;96699.75;5042160;28;20201;-31
2020/12/28 09:32:59;;;;;;;2.13;1.37;;;;;;;5.54;100.00;96690.16;5041232;28;20196;-31
2020/12/28 09:35:46;;;;;;;1.30;1.20;;;;;;;5.70;100.00;96697.97;5042477;28;20205;-33
2020/12/28 09:38:32;;;;;;;1.37;1.17;;;;;;;5.58;100.00;96694.25;5040220;28;20650;-31
2020/12/28 09:41:19;;;;;;;0.97;0.97;;;;;;;5.99;100.00;96694.88;5046374;28;20204;-31
2020/12/28 09:44:05;;;;;;;1.30;1.20;;;;;;;5.93;100.00;96687.47;5062715;28;20281;-32
2020/12/28 09:46:52;;;;;;;1.10;1.10;;;;;;;5.90;100.00;96681.66;5061368;28;20216;-32
2020/12/28 09:49:38;;;;;;;1.53;1.43;;;;;;;6.23;100.00;96675.69;5062261;28;20532;-31
2020/12/28 09:52:24;;;;;;;1.33;1.33;;;;;;;6.22;100.00;96675.78;5060796;28;20375;-31
2020/12/28 09:55:12;;;;;;;1.27;1.17;;;;;;;6.06;100.00;96683.41;5059820;28;20607;-31
2020/12/28 09:58:00;;;;;;;1.37;1.27;;;;;;;6.50;100.00;96680.38;5059355;28;20201;-31
2020/12/28 10:00:46;;;;;;;1.50;1.40;;;;;;;6.53;100.00;96678.47;5059762;28;20274;-32
2020/12/28 10:03:32;;;;;;;1.57;1.10;;;;;;;6.16;100.00;96673.53;5059688;28;20200;-32
2020/12/28 10:06:31;;;;;;;1.23;1.13;;;;;;;6.20;100.00;96662.19;5059790;28;20208;-32
2020/12/28 10:09:18;;;;;;;0.90;0.90;;;;;;;6.81;100.00;96651.34;5059546;28;20309;-32
2020/12/28 10:12:04;;;;;;;1.00;1.00;;;;;;;7.86;100.00;96646.44;5059365;28;20215;-32
2020/12/28 10:14:52;;;;;;;0.80;0.80;;;;;;;7.48;100.00;96645.19;5059336;28;20197;-32
2020/12/28 10:18:01;;;;;;;1.17;1.07;;;;;;;8.06;100.00;96647.88;5058579;28;20213;-33
2020/12/28 10:20:50;;;;;;;1.20;0.87;;;;;;;8.60;100.00;96659.31;5061495;28;20292;-31
2020/12/28 10:23:39;;;;;;;1.93;1.00;;;;;;;6.95;100.00;96663.50;5058525;28;20196;-31
2020/12/28 10:26:26;;;;;;;0.73;0.70;;;;;;;6.63;100.00;96686.53;5058740;28;20194;-32
2020/12/28 10:29:13;;;;;;;0.90;0.90;;;;;;;6.47;100.00;96694.19;5058284;28;20196;-30
2020/12/28 10:32:00;;;;;;;2.63;1.00;;;;;;;8.50;100.00;96683.97;5059326;28;20677;-32
2020/12/28 10:34:46;;;;;;;2.33;1.00;;;;;;;8.41;100.00;96678.50;5058556;28;20196;-31
2020/12/28 10:37:35;;;;;;;0.90;0.90;;;;;;;8.10;100.00;96685.41;5063252;28;20192;-31
2020/12/28 10:40:21;;;;;;;0.70;0.70;;;;;;;8.98;100.00;96681.97;5058566;28;20204;-31
2020/12/28 10:43:23;;;;;;;1.10;1.00;;;;;;;8.65;100.00;96677.06;5059442;28;20192;-31
2020/12/28 10:46:10;;;;;;;0.60;0.60;;;;;;;9.16;100.00;96673.13;5057213;28;20211;-31
2020/12/28 10:48:57;;;;;;;1.70;0.93;;;;;;;8.43;100.00;96679.25;5059482;28;20258;-31
2020/12/28 10:51:44;;;;;;;2.83;0.80;;;;;;;7.87;100.00;96678.16;5058409;28;20305;-32
2020/12/28 10:54:35;;;;;;;0.70;0.70;;;;;;;7.72;100.00;96684.97;5059672;28;20202;-31
2020/12/28 10:57:21;;;;;;;2.07;0.83;;;;;;;8.03;100.00;96698.69;5038355;28;20610;-31
2020/12/28 11:00:07;;;;;;;1.57;0.80;;;;;;;8.13;100.00;96695.53;5038558;28;20685;-31
2020/12/28 11:02:53;;;;;;;0.87;0.77;;;;;;;8.23;100.00;96700.97;5038236;28;20225;-31
2020/12/28 11:05:40;;;;;;;1.10;1.00;;;;;;;8.71;100.00;96699.91;5047560;28;20223;-31
2020/12/28 11:08:26;;;;;;;2.93;0.90;;;;;;;7.87;100.00;96688.44;5038760;28;20306;-31
2020/12/28 11:11:13;;;;;;;0.97;0.97;;;;;;;7.54;100.00;96686.81;5039687;28;20232;-31
2020/12/28 11:13:59;;;;;;;0.80;0.80;;;;;;;7.79;100.00;96688.88;5038089;28;20612;-31
2020/12/28 11:16:45;;;;;;;2.80;1.00;;;;;;;7.70;100.00;96693.69;5037891;28;20658;-31
2020/12/28 11:19:30;;;;;;;2.30;0.80;;;;;;;7.75;100.00;96684.81;5038696;28;20205;-31
2020/12/28 11:22:18;;;;;;;0.90;0.90;;;;;;;8.21;100.00;96687.34;5038679;28;20252;-31
2020/12/28 11:25:04;;;;;;;1.20;1.00;;;;;;;7.65;100.00;96678.50;5039053;28;20286;-31
2020/12/28 11:27:50;;;;;;;0.73;0.73;;;;;;;7.81;100.00;96678.47;5038922;28;20261;-31
2020/12/28 11:30:36;;;;;;;1.80;0.80;;;;;;;7.64;100.00;96676.00;5038733;28;20229;-31
2020/12/28 11:33:23;;;;;;;0.77;0.70;;;;;;;6.83;100.00;96668.34;5038188;28;20207;-31
2020/12/28 11:36:13;;;;;;;1.00;0.83;;;;;;;6.86;100.00;96668.19;5039137;28;20202;-31
2020/12/28 11:39:00;;;;;;;1.53;0.90;;;;;;;7.03;100.00;96657.03;5038531;28;20270;-31
2020/12/28 11:41:48;;;;;;;1.50;1.40;;;;;;;7.05;100.00;96659.50;5037762;28;20600;-31
2020/12/28 11:44:35;;;;;;;0.83;0.83;;;;;;;7.14;100.00;96662.44;5051004;28;20177;-31
2020/12/28 11:47:21;;;;;;;5.03;1.27;;;;;;;7.18;100.00;96651.09;5037811;28;20220;-31
2020/12/28 11:50:08;;;;;;;2.73;1.20;;;;;;;7.33;100.00;96654.56;5037260;28;20650;-31
2020/12/28 11:52:56;;;;;;;0.83;0.83;;;;;;;7.00;100.00;96649.47;5037731;28;20568;-30
2020/12/28 11:56:03;;;;;;;4.17;1.00;;;;;;;6.78;100.00;96648.97;5040293;28;20217;-31
2020/12/28 11:58:49;;;;;;;1.77;0.90;;;;;;;6.85;100.00;96647.72;5038100;28;20212;-30
2020/12/28 12:01:37;;;;;;;0.93;0.93;;;;;;;6.67;100.00;96652.09;5039536;28;20674;-31
2020/12/28 12:04:48;;;;;;;1.87;0.90;;;;;;;6.76;100.00;96653.34;5037646;28;20193;-30
2020/12/28 12:07:30;;;;;;;0.70;0.70;;;;;;;7.05;100.00;96652.63;5037551;28;20268;-30
2020/12/28 12:10:16;;;;;;;1.73;0.93;;;;;;;7.11;100.00;96652.31;5039847;28;20222;-30
2020/12/28 12:13:03;;;;;;;1.70;0.93;;;;;;;6.85;100.00;96640.03;5037445;28;20244;-31
2020/12/28 12:15:50;;;;;;;1.10;0.60;;;;;;;6.86;100.00;96644.25;5038160;28;20263;-30
2020/12/28 12:18:42;;;;;;;1.80;0.97;;;;;;;6.70;100.00;96643.41;5040057;28;20197;-30
2020/12/28 12:21:29;;;;;;;0.97;0.87;;;;;;;6.64;100.00;96644.53;5053569;28;20219;-30
2020/12/28 12:24:24;;;;;;;1.50;0.87;;;;;;;6.76;100.00;96641.34;5061047;28;20263;-30
2020/12/28 12:27:17;;;;;;;1.43;0.70;;;;;;;6.63;100.00;96644.59;5058959;28;20251;-30
2020/12/28 12:30:08;;;;;;;1.10;1.00;;;;;;;6.60;100.00;96622.50;5060513;28;20200;-30
2020/12/28 12:32:59;;;;;;;3.23;0.57;;;;;;;6.75;100.00;96626.00;5061941;28;20227;-30
2020/12/28 12:35:51;;;;;;;1.73;0.57;;;;;;;7.10;100.00;96629.28;5061493;28;20196;-31
2020/12/28 12:38:38;;;;;;;0.73;0.73;;;;;;;7.13;100.00;96618.84;5061518;28;20224;-31
2020/12/28 12:41:29;;;;;;;1.50;0.90;;;;;;;7.61;100.00;96620.44;5064198;28;20196;-31
2020/12/28 12:44:24;;;;;;;0.60;0.60;;;;;;;7.81;100.00;96617.56;5058157;28;20922;-31
2020/12/28 12:47:22;;;;;;;0.60;0.60;;;;;;;8.92;100.00;96607.59;5057081;28;20589;-31
2020/12/28 12:50:17;;;;;;;1.90;0.97;;;;;;;9.48;86.41;96600.63;5059490;28;20288;-32
2020/12/28 12:53:11;;;;;;;2.43;0.60;;;;;;;8.40;89.77;96587.53;5058520;28;20294;-31
2020/12/28 12:56:06;;;;;;;0.90;0.60;;;;;;;9.04;83.69;96591.34;5060045;28;20201;-31
2020/12/28 12:58:55;;;;;;;0.77;0.60;;;;;;;8.51;88.79;96582.59;5059700;28;20204;-31
2020/12/28 13:01:45;;;;;;;0.67;0.67;;;;;;;9.98;79.80;96585.28;5057108;28;20198;-31
2020/12/28 13:04:38;;;;;;;1.07;1.07;;;;;;;9.93;75.53;96587.34;5060546;28;20351;-32
2020/12/28 13:07:37;;;;;;;2.30;0.77;;;;;;;8.61;86.51;96595.72;5062419;28;20207;-31
2020/12/28 13:10:32;;;;;;;0.97;0.70;;;;;;;8.11;88.45;96611.59;5057349;28;20212;-33
2020/12/28 13:13:21;;;;;;;0.90;0.70;;;;;;;7.81;94.80;96612.41;5057716;28;20216;-31